createdAt,value
2019-04-05T00:01:21.208Z,11.60
2019-04-05T00:03:59.429Z,11.40
2019-04-05T00:06:39.201Z,11.47
2019-04-05T00:09:18.394Z,10.90
2019-04-05T00:11:53.924Z,11.27
2019-04-05T00:14:38.452Z,11.53
2019-04-05T00:17:21.753Z,11.57
2019-04-05T00:19:57.404Z,12.00
2019-04-05T00:22:38.401Z,10.27
2019-04-05T00:25:16.008Z,11.83
2019-04-05T00:27:51.563Z,11.23
2019-04-05T00:30:30.224Z,12.70
2019-04-05T00:33:06.870Z,11.30
2019-04-05T00:35:46.591Z,12.10
2019-04-05T00:38:23.861Z,10.80
2019-04-05T00:41:03.410Z,12.27
2019-04-05T00:43:46.573Z,11.53
2019-04-05T00:46:23.578Z,11.97
2019-04-05T00:49:02.220Z,11.33
2019-04-05T00:51:40.045Z,11.33
2019-04-05T00:54:15.791Z,10.97
2019-04-05T00:56:56.531Z,12.37
2019-04-05T00:59:36.787Z,12.13
2019-04-05T01:02:20.772Z,12.07
2019-04-05T01:04:59.150Z,12.80
2019-04-05T01:07:36.588Z,12.47
2019-04-05T01:10:18.644Z,11.90
2019-04-05T01:12:58.460Z,11.93
2019-04-05T01:15:40.969Z,13.03
2019-04-05T01:18:14.888Z,13.13
2019-04-05T01:20:52.025Z,13.13
2019-04-05T01:23:35.705Z,12.77
2019-04-05T01:26:26.941Z,13.57
2019-04-05T01:29:04.933Z,12.90
2019-04-05T01:31:45.839Z,12.63
2019-04-05T01:34:33.026Z,13.73
2019-04-05T01:37:08.550Z,13.33
2019-04-05T01:39:44.413Z,12.53
2019-04-05T01:42:21.612Z,13.90
2019-04-05T01:44:58.673Z,13.20
2019-04-05T01:47:37.080Z,13.30
2019-04-05T01:50:12.895Z,12.67
2019-04-05T01:52:55.521Z,13.30
2019-04-05T01:55:43.444Z,14.43
2019-04-05T01:58:20.889Z,14.40
2019-04-05T02:01:03.683Z,14.47
2019-04-05T02:03:41.699Z,15.60
2019-04-05T02:06:27.035Z,20.33
2019-04-05T02:09:14.660Z,15.47
2019-04-05T02:11:44.066Z,14.77
2019-04-05T02:14:23.233Z,15.80
2019-04-05T02:17:07.227Z,14.73
2019-04-05T02:19:49.693Z,16.47
2019-04-05T02:22:28.824Z,15.30
2019-04-05T02:25:05.848Z,15.57
2019-04-05T02:27:43.652Z,15.90
2019-04-05T02:30:20.048Z,15.63
2019-04-05T02:32:59.182Z,16.60
2019-04-05T02:35:38.663Z,14.90
2019-04-05T02:38:12.394Z,16.80
2019-04-05T02:40:51.038Z,16.43
2019-04-05T02:43:31.848Z,17.70
2019-04-05T02:46:23.177Z,17.87
2019-04-05T02:48:50.670Z,18.03
2019-04-05T02:51:33.007Z,19.47
2019-04-05T02:54:14.830Z,18.10
2019-04-05T02:56:55.772Z,16.07
2019-04-05T02:59:42.096Z,17.93
2019-04-05T03:02:27.438Z,16.67
2019-04-05T03:05:16.570Z,19.77
2019-04-05T03:07:58.310Z,19.80
2019-04-05T03:10:58.565Z,18.33
2019-04-05T03:13:42.107Z,19.13
2019-04-05T03:16:21.270Z,18.83
2019-04-05T03:19:07.956Z,19.83
2019-04-05T03:21:48.928Z,19.10
2019-04-05T03:24:27.971Z,20.03
2019-04-05T03:27:07.305Z,21.03
2019-04-05T03:29:48.205Z,19.83
2019-04-05T03:32:24.302Z,21.43
2019-04-05T03:35:07.075Z,20.27
2019-04-05T03:37:47.320Z,21.33
2019-04-05T03:40:33.106Z,20.63
2019-04-05T03:43:08.815Z,21.20
2019-04-05T03:45:49.307Z,22.90
2019-04-05T03:48:26.118Z,20.57
2019-04-05T03:51:01.827Z,19.70
2019-04-05T03:53:46.420Z,20.53
2019-04-05T03:56:27.625Z,20.10
2019-04-05T03:59:07.530Z,21.93
2019-04-05T04:01:43.140Z,25.73
2019-04-05T04:04:27.255Z,21.17
2019-04-05T04:07:06.531Z,21.80
2019-04-05T04:09:42.141Z,22.93
2019-04-05T04:12:25.991Z,24.60
2019-04-05T04:15:16.213Z,21.70
2019-04-05T04:17:57.980Z,23.17
2019-04-05T04:20:40.753Z,24.13
2019-04-05T04:23:21.023Z,22.47
2019-04-05T04:25:56.803Z,24.27
2019-04-05T04:28:36.881Z,22.30
2019-04-05T04:31:14.960Z,20.83
2019-04-05T04:33:55.021Z,25.13
2019-04-05T04:36:30.909Z,24.90
2019-04-05T04:39:09.007Z,23.80
2019-04-05T04:41:46.218Z,23.37
2019-04-05T04:44:22.001Z,21.47
2019-04-05T04:46:57.866Z,26.83
2019-04-05T04:49:34.259Z,24.37
2019-04-05T04:52:10.128Z,26.30
2019-04-05T04:54:45.922Z,23.53
2019-04-05T04:57:21.514Z,25.10
2019-04-05T05:00:03.273Z,23.93
2019-04-05T05:02:51.523Z,22.37
2019-04-05T05:05:28.057Z,26.37
2019-04-05T05:08:05.363Z,25.03
2019-04-05T05:10:57.041Z,25.27
2019-04-05T05:13:46.466Z,25.13
2019-04-05T05:17:20.793Z,24.23
2019-04-05T05:20:07.854Z,26.43
2019-04-05T05:23:15.618Z,27.57
2019-04-05T05:26:05.589Z,24.97
2019-04-05T05:28:43.888Z,26.63
2019-04-05T05:31:38.281Z,24.07
2019-04-05T05:34:32.906Z,25.67
2019-04-05T05:37:22.067Z,25.43
2019-04-05T05:40:02.487Z,24.93
2019-04-05T05:42:42.893Z,26.30
2019-04-05T05:45:35.860Z,24.90
2019-04-05T05:48:36.543Z,25.03
2019-04-05T05:51:17.707Z,24.57
2019-04-05T05:53:55.764Z,22.97
2019-04-05T05:56:50.848Z,25.10
2019-04-05T06:00:02.093Z,26.63
2019-04-05T06:23:11.253Z,26.97
2019-04-05T06:29:53.614Z,25.63
2019-04-05T06:32:38.148Z,24.90
2019-04-05T06:52:43.872Z,23.60
2019-04-05T07:20:52.519Z,24.87
2019-04-05T07:31:39.341Z,26.50
2019-04-05T07:35:34.237Z,26.60
2019-04-05T08:16:45.560Z,26.83
2019-04-05T12:22:27.969Z,18.60
2019-04-05T12:26:04.124Z,18.25
2019-04-05T12:29:26.024Z,18.40
2019-04-05T12:41:24.317Z,19.12
2019-04-05T12:48:46.373Z,19.17
2019-04-05T12:55:51.663Z,17.60
2019-04-05T12:59:18.808Z,17.92
2019-04-05T13:02:08.570Z,17.87
2019-04-05T13:04:51.565Z,18.12
2019-04-05T13:11:25.916Z,17.60
2019-04-05T13:34:10.857Z,17.90
2019-04-05T13:36:59.344Z,19.27
2019-04-05T13:40:06.279Z,19.37
2019-04-05T13:55:03.004Z,19.30
2019-04-05T13:59:02.326Z,18.85
2019-04-05T14:04:53.957Z,18.40
2019-04-05T14:12:02.207Z,17.25
2019-04-05T14:15:15.555Z,19.17
2019-04-05T14:18:27.746Z,18.63
2019-04-05T14:21:07.086Z,17.90
2019-04-05T14:27:03.088Z,19.00
2019-04-05T14:29:47.630Z,18.90
2019-04-05T14:32:51.456Z,19.27
2019-04-05T14:35:56.983Z,19.42
2019-04-05T14:38:48.004Z,22.67
2019-04-05T14:41:23.251Z,18.87
2019-04-05T14:44:09.801Z,19.63
2019-04-05T14:47:04.105Z,19.20
2019-04-05T14:50:18.009Z,18.00
2019-04-05T14:53:04.424Z,18.43
2019-04-05T14:55:42.148Z,21.00
2019-04-05T14:58:22.181Z,19.17
2019-04-05T15:01:05.469Z,20.93
2019-04-05T15:03:41.978Z,19.93
2019-04-05T15:06:22.360Z,20.37
2019-04-05T15:09:04.410Z,20.13
2019-04-05T15:11:45.767Z,21.53
2019-04-05T15:14:22.020Z,20.43
2019-04-05T15:17:02.952Z,19.90
2019-04-05T15:19:42.328Z,18.37
2019-04-05T15:22:20.446Z,20.67
2019-04-05T15:25:06.432Z,42.73
2019-04-05T15:27:45.694Z,20.77
2019-04-05T15:30:26.439Z,21.03
2019-04-05T15:33:08.222Z,19.90
2019-04-05T15:35:48.593Z,20.87
2019-04-05T15:38:31.337Z,23.97
2019-04-05T15:41:10.422Z,20.43
2019-04-05T15:43:53.156Z,20.27
2019-04-05T15:46:37.718Z,19.10
2019-04-05T15:49:17.146Z,22.20
2019-04-05T15:51:58.890Z,19.90
2019-04-05T15:54:43.030Z,19.93
2019-04-05T15:57:22.487Z,20.43
2019-04-05T15:59:59.093Z,20.03
2019-04-05T16:02:42.976Z,19.90
2019-04-05T16:05:21.655Z,19.37
2019-04-05T16:07:57.195Z,20.03
2019-04-05T16:10:33.933Z,20.87
2019-04-05T16:13:12.813Z,20.07
2019-04-05T16:15:55.901Z,22.10
2019-04-05T16:18:37.017Z,22.00
2019-04-05T16:21:41.986Z,22.03
2019-04-05T16:40:26.147Z,20.53
2019-04-05T16:43:19.208Z,19.57
2019-04-05T16:46:07.191Z,19.77
2019-04-05T16:49:42.432Z,20.07
2019-04-05T16:52:50.171Z,20.17
2019-04-05T16:56:05.065Z,19.13
2019-04-05T17:06:17.198Z,18.90
2019-04-05T17:09:32.668Z,20.90
2019-04-05T17:12:50.084Z,19.73
2019-04-05T17:16:23.929Z,19.33
2019-04-05T17:19:49.140Z,19.40
2019-04-05T17:23:23.163Z,18.47
2019-04-05T17:26:44.762Z,17.60
2019-04-05T17:37:33.056Z,19.10
2019-04-05T17:41:38.291Z,17.77
2019-04-05T17:45:19.917Z,20.73
2019-04-05T19:11:33.398Z,7.37
2019-04-05T19:14:44.037Z,6.33
2019-04-05T19:18:25.766Z,6.50
2019-04-05T19:25:35.870Z,6.40
2019-04-05T19:28:47.493Z,5.67
2019-04-05T19:50:20.901Z,6.37
2019-04-05T19:53:24.493Z,6.17
2019-04-05T19:56:45.796Z,4.00
2019-04-05T19:59:29.355Z,6.23
2019-04-05T20:02:18.036Z,5.47
2019-04-05T20:04:59.337Z,6.40
2019-04-05T20:07:48.156Z,6.53
2019-04-05T20:10:40.561Z,6.47
2019-04-05T20:13:38.258Z,4.70
2019-04-05T20:16:19.816Z,4.73
2019-04-05T20:19:24.896Z,3.80
2019-04-05T20:22:10.225Z,5.87
2019-04-05T20:24:50.390Z,8.53
2019-04-05T20:27:40.637Z,6.87
2019-04-05T20:33:38.843Z,11.03
2019-04-05T20:36:32.930Z,10.00
2019-04-05T20:39:21.255Z,5.63
2019-04-05T20:42:17.526Z,4.70
2019-04-05T20:45:19.090Z,4.57
2019-04-05T20:48:02.180Z,4.03
2019-04-05T20:51:22.054Z,4.67
2019-04-05T20:54:23.927Z,5.37
2019-04-05T20:56:56.054Z,4.43
2019-04-05T21:00:15.107Z,3.70
2019-04-05T21:03:19.725Z,3.53
2019-04-05T21:06:09.788Z,4.27
2019-04-05T21:08:49.931Z,3.70
2019-04-05T21:11:50.253Z,3.73
2019-04-05T21:14:43.604Z,3.63
2019-04-05T21:17:34.946Z,3.73
2019-04-05T21:20:23.776Z,4.23
2019-04-05T21:23:07.571Z,4.07
2019-04-05T21:26:04.956Z,4.00
2019-04-05T21:28:52.540Z,3.47
2019-04-05T21:31:34.242Z,3.67
2019-04-05T21:34:27.806Z,3.63
2019-04-05T21:37:21.124Z,4.00
2019-04-05T21:40:11.329Z,4.07
2019-04-05T21:43:00.968Z,3.70
2019-04-05T21:45:43.974Z,4.03
2019-04-05T21:48:40.306Z,4.10
2019-04-05T21:51:48.086Z,7.03
2019-04-05T21:54:34.579Z,3.73
2019-04-05T21:57:33.896Z,4.50
2019-04-05T22:00:27.288Z,4.20
2019-04-05T22:03:28.279Z,3.67
2019-04-05T22:06:32.101Z,3.60
2019-04-05T22:09:27.716Z,3.37
2019-04-05T22:12:15.476Z,3.33
2019-04-05T22:15:22.081Z,3.47
2019-04-05T22:18:17.295Z,3.83
2019-04-05T22:21:13.528Z,3.30
2019-04-05T22:24:07.510Z,3.60
2019-04-05T22:27:07.791Z,3.90
2019-04-05T22:30:06.247Z,3.57
2019-04-05T22:33:02.381Z,3.70
2019-04-05T22:35:44.540Z,5.00
2019-04-05T22:38:39.384Z,3.87
2019-04-05T22:41:25.373Z,4.03
2019-04-05T22:44:38.713Z,3.60
2019-04-05T22:47:19.007Z,3.80
2019-04-05T22:50:51.350Z,3.50
2019-04-05T22:53:45.907Z,3.77
2019-04-05T22:56:33.584Z,3.90
2019-04-05T22:59:18.239Z,3.30
2019-04-05T23:02:42.498Z,4.23
2019-04-05T23:05:35.693Z,3.90
2019-04-05T23:08:28.792Z,3.70
2019-04-05T23:11:14.831Z,3.40
2019-04-05T23:14:12.405Z,4.07
2019-04-05T23:16:51.580Z,3.77
2019-04-05T23:19:35.193Z,4.23
2019-04-05T23:22:35.720Z,3.67
2019-04-05T23:25:26.104Z,4.47
2019-04-05T23:28:08.817Z,3.90
2019-04-05T23:30:54.600Z,4.10
2019-04-05T23:33:39.703Z,4.20
2019-04-05T23:36:38.150Z,3.97
2019-04-05T23:39:50.150Z,4.27
2019-04-05T23:42:30.736Z,5.57
2019-04-05T23:45:21.230Z,12.40
2019-04-05T23:48:14.998Z,5.50
2019-04-05T23:51:13.492Z,4.07
2019-04-05T23:54:08.331Z,4.03
2019-04-05T23:57:02.221Z,4.03
2019-04-05T23:59:56.575Z,3.70
